Time;durP1;ratioP1;P1;durP2;ratioP2;P2;SDS_P1;SDS_P2;PMS_P1;PMS_P2;Temp;Humidity;BMP_temperature;BMP_pressure;BME280_temperature;BME280_humidity;BME280_pressure;Samples;Min_cycle;Max_cycle;Signal;HPM_P1;HPM_P2
2022/07/27 00:01:50;;;;;;;3.25;2.92;;;26.70;57.90;;;;;;5086302;28;20129;-61
2022/07/27 00:04:18;;;;;;;3.83;3.53;;;26.70;57.90;;;;;;5087377;28;20614;-62
2022/07/27 00:06:47;;;;;;;2.97;2.78;;;26.70;57.90;;;;;;5085731;28;20393;-62
2022/07/27 00:09:17;;;;;;;3.75;3.25;;;26.70;57.90;;;;;;5084675;28;20484;-62
2022/07/27 00:11:45;;;;;;;3.40;3.13;;;26.70;57.90;;;;;;5087227;28;20538;-62
2022/07/27 00:14:12;;;;;;;2.90;2.70;;;26.70;57.80;;;;;;5087194;28;20312;-62
2022/07/27 00:16:39;;;;;;;3.08;2.78;;;26.70;57.80;;;;;;5086290;28;20074;-62
2022/07/27 00:19:06;;;;;;;2.92;2.72;;;26.70;57.80;;;;;;5086745;28;20079;-62
2022/07/27 00:21:35;;;;;;;2.75;2.55;;;26.70;57.80;;;;;;5087258;28;20528;-62
2022/07/27 00:24:11;;;;;;;2.92;2.72;;;26.70;57.80;;;;;;5085593;28;20040;-61
2022/07/27 00:26:38;;;;;;;2.88;2.67;;;26.70;57.80;;;;;;5086995;28;20136;-62
2022/07/27 00:29:05;;;;;;;3.30;2.80;;;26.70;57.80;;;;;;5086374;28;20044;-61
2022/07/27 00:31:32;;;;;;;2.70;2.50;;;26.70;57.80;;;;;;5087157;28;20044;-61
2022/07/27 00:34:00;;;;;;;3.30;3.08;;;26.70;57.80;;;;;;5086998;28;20535;-61
2022/07/27 00:36:27;;;;;;;2.83;2.63;;;26.60;57.70;;;;;;5086831;28;20105;-61
2022/07/27 00:38:54;;;;;;;3.03;2.40;;;26.60;57.70;;;;;;5082792;28;20079;-61
2022/07/27 00:41:21;;;;;;;3.63;3.33;;;26.70;57.80;;;;;;5086782;28;20470;-61
2022/07/27 00:43:51;;;;;;;3.35;2.95;;;26.70;57.70;;;;;;5086730;28;20660;-61
2022/07/27 00:46:18;;;;;;;2.92;2.72;;;26.60;57.70;;;;;;5085212;28;20075;-61
2022/07/27 00:48:45;;;;;;;3.10;2.90;;;26.60;57.60;;;;;;5086978;28;20044;-61
2022/07/27 00:51:15;;;;;;;2.88;2.50;;;26.70;57.70;;;;;;5086372;28;20302;-61
2022/07/27 00:53:42;;;;;;;2.65;2.45;;;26.60;57.60;;;;;;5085501;28;20101;-61
2022/07/27 00:56:10;;;;;;;2.70;2.50;;;26.60;57.60;;;;;;5086859;28;20048;-60
2022/07/27 00:58:38;;;;;;;2.83;2.63;;;26.60;57.50;;;;;;5086747;28;20094;-61
2022/07/27 01:01:06;;;;;;;2.85;2.65;;;26.70;57.60;;;;;;5086986;28;20137;-61
2022/07/27 01:03:33;;;;;;;2.97;2.67;;;26.70;58.10;;;;;;5068285;28;20272;-61
2022/07/27 01:06:01;;;;;;;2.95;2.75;;;26.70;57.60;;;;;;5084980;28;20051;-61
2022/07/27 01:08:30;;;;;;;2.78;2.58;;;26.60;57.50;;;;;;5084325;28;20087;-61
2022/07/27 01:10:58;;;;;;;4.15;2.88;;;26.70;57.50;;;;;;5081213;28;20519;-61
2022/07/27 01:13:25;;;;;;;2.50;2.30;;;26.60;57.40;;;;;;5085902;28;20040;-61
2022/07/27 01:15:53;;;;;;;2.72;2.53;;;26.70;57.40;;;;;;5085972;28;20443;-61
2022/07/27 01:18:35;;;;;;;2.92;2.70;;;26.60;57.40;;;;;;5085817;28;20044;-61
2022/07/27 01:21:05;;;;;;;3.20;2.90;;;26.70;57.40;;;;;;5086017;28;20453;-61
2022/07/27 01:23:33;;;;;;;3.53;3.22;;;26.70;57.40;;;;;;5084584;28;20101;-62
2022/07/27 01:26:01;;;;;;;2.60;2.40;;;26.60;57.30;;;;;;5085639;28;20075;-61
2022/07/27 01:28:29;;;;;;;2.80;2.60;;;26.70;57.30;;;;;;5085460;28;20052;-61
2022/07/27 01:30:56;;;;;;;2.67;2.47;;;26.70;57.30;;;;;;5086528;28;20359;-61
2022/07/27 01:33:27;;;;;;;3.53;3.22;;;26.60;57.30;;;;;;5068195;28;20067;-61
2022/07/27 01:35:55;;;;;;;;;;;26.70;57.30;;;;;;5085991;28;20451;-62
2022/07/27 01:38:22;;;;;;;2.70;2.50;;;26.60;57.30;;;;;;5085904;28;19923;-62
2022/07/27 01:40:51;;;;;;;2.80;2.60;;;26.70;57.30;;;;;;5084925;28;20577;-62
2022/07/27 01:43:19;;;;;;;2.40;2.22;;;26.60;57.30;;;;;;5081430;28;20047;-61
2022/07/27 01:45:47;;;;;;;3.03;2.83;;;26.60;57.30;;;;;;5084441;28;20048;-63
2022/07/27 01:48:15;;;;;;;2.40;2.30;;;26.60;57.30;;;;;;5085508;28;20103;-61
2022/07/27 01:50:42;;;;;;;3.63;3.03;;;26.60;57.30;;;;;;5084860;28;20471;-61
2022/07/27 01:53:13;;;;;;;2.58;2.38;;;26.60;57.30;;;;;;5085554;28;20071;-61
2022/07/27 01:55:41;;;;;;;2.85;2.65;;;26.60;57.30;;;;;;5085976;28;20048;-61
2022/07/27 01:58:08;;;;;;;2.90;2.65;;;26.60;57.30;;;;;;5083492;28;20531;-61
2022/07/27 02:00:36;;;;;;;2.60;2.40;;;26.60;57.30;;;;;;5086059;28;20102;-61
2022/07/27 02:03:05;;;;;;;2.45;2.33;;;26.60;57.30;;;;;;5085119;28;20055;-61
2022/07/27 02:05:33;;;;;;;2.63;2.42;;;26.60;57.30;;;;;;5083769;28;20485;-61
2022/07/27 02:08:00;;;;;;;2.58;2.38;;;26.60;57.30;;;;;;5084045;28;20505;-61
2022/07/27 02:10:28;;;;;;;2.97;2.78;;;26.60;57.30;;;;;;5084346;28;20432;-61
2022/07/27 02:12:55;;;;;;;2.60;2.40;;;26.60;57.30;;;;;;5082092;28;20080;-62
2022/07/27 02:15:25;;;;;;;3.30;2.78;;;26.60;57.30;;;;;;5082391;28;20105;-61
2022/07/27 02:17:54;;;;;;;2.63;2.42;;;26.60;57.30;;;;;;5085406;28;20101;-61
2022/07/27 02:20:23;;;;;;;2.63;2.42;;;26.50;57.20;;;;;;5084538;28;20512;-61
2022/07/27 02:22:51;;;;;;;2.50;2.30;;;26.60;57.30;;;;;;5084700;28;20460;-61
2022/07/27 02:25:19;;;;;;;4.40;2.78;;;26.50;57.20;;;;;;5086969;28;20052;-61
2022/07/27 02:27:46;;;;;;;2.92;2.72;;;26.50;57.20;;;;;;5084591;28;20453;-61
2022/07/27 02:30:14;;;;;;;3.28;3.00;;;26.50;57.20;;;;;;5086542;28;20114;-61
2022/07/27 02:32:43;;;;;;;2.95;2.75;;;26.60;57.30;;;;;;5085980;28;20052;-61
2022/07/27 02:35:11;;;;;;;2.33;2.22;;;26.60;57.30;;;;;;5085786;28;20105;-61
2022/07/27 02:37:47;;;;;;;3.08;2.85;;;26.60;57.30;;;;;;5084856;28;20520;-61
2022/07/27 02:40:16;;;;;;;3.13;2.90;;;26.60;57.30;;;;;;5085048;28;20127;-62
2022/07/27 02:42:45;;;;;;;2.95;2.58;;;26.50;57.20;;;;;;5085362;28;20137;-62
2022/07/27 02:45:14;;;;;;;2.45;2.25;;;26.60;57.30;;;;;;5080419;28;20044;-62
2022/07/27 02:47:41;;;;;;;2.75;2.55;;;26.60;57.20;;;;;;5084463;28;20543;-62
2022/07/27 02:50:09;;;;;;;4.75;2.70;;;26.60;57.10;;;;;;5085134;28;20085;-62
2022/07/27 02:52:37;;;;;;;3.20;2.90;;;26.60;57.10;;;;;;5084286;28;20126;-62
2022/07/27 02:55:04;;;;;;;3.05;2.75;;;26.60;57.10;;;;;;5084946;28;20098;-62
2022/07/27 02:57:34;;;;;;;2.60;2.40;;;26.60;57.10;;;;;;5084894;28;20055;-62
2022/07/27 03:00:04;;;;;;;3.35;2.50;;;26.60;57.00;;;;;;5084912;28;20080;-61
2022/07/27 03:02:32;;;;;;;2.78;2.58;;;26.60;57.00;;;;;;5083881;28;20044;-62
2022/07/27 03:04:59;;;;;;;2.70;2.50;;;26.60;57.00;;;;;;5084828;28;20071;-61
2022/07/27 03:07:26;;;;;;;3.95;3.00;;;26.60;57.00;;;;;;5084988;28;20101;-61
2022/07/27 03:09:53;;;;;;;2.50;2.28;;;26.60;56.90;;;;;;5088665;28;20047;-61
2022/07/27 03:12:20;;;;;;;2.38;2.17;;;26.60;57.00;;;;;;5088071;28;20416;-61
2022/07/27 03:14:47;;;;;;;2.05;1.95;;;26.60;56.90;;;;;;5088717;28;20542;-61
2022/07/27 03:17:14;;;;;;;2.90;2.60;;;26.60;56.90;;;;;;5082370;28;20084;-61
2022/07/27 03:19:42;;;;;;;2.75;2.55;;;26.60;56.90;;;;;;5088649;28;20079;-61
2022/07/27 03:22:09;;;;;;;2.70;2.50;;;26.60;56.90;;;;;;5088405;28;20046;-61
2022/07/27 03:24:36;;;;;;;3.33;2.83;;;26.60;56.90;;;;;;5088271;28;20462;-61
2022/07/27 03:27:03;;;;;;;2.47;2.28;;;26.60;56.90;;;;;;5088446;28;20552;-63
2022/07/27 03:29:30;;;;;;;2.85;2.60;;;26.50;56.80;;;;;;5087641;28;20055;-64
2022/07/27 03:31:58;;;;;;;2.83;2.58;;;26.60;56.90;;;;;;5088474;28;20262;-61
2022/07/27 03:34:25;;;;;;;2.60;2.40;;;26.60;56.80;;;;;;5088183;28;20040;-61
2022/07/27 03:36:52;;;;;;;2.45;2.28;;;26.60;56.80;;;;;;5086947;28;20052;-61
2022/07/27 03:39:19;;;;;;;3.17;2.88;;;26.60;56.80;;;;;;5088141;28;20450;-61
2022/07/27 03:41:46;;;;;;;2.90;2.70;;;26.60;56.80;;;;;;5086674;28;20121;-61
2022/07/27 03:44:14;;;;;;;2.70;2.50;;;26.60;56.80;;;;;;5087511;28;20044;-61
2022/07/27 03:46:41;;;;;;;2.55;2.35;;;26.60;56.80;;;;;;5075844;28;20087;-61
2022/07/27 03:49:08;;;;;;;3.33;3.03;;;26.60;56.70;;;;;;5062486;28;20505;-61
2022/07/27 03:51:41;;;;;;;2.63;2.42;;;26.60;56.70;;;;;;5066129;28;20048;-61
2022/07/27 03:54:09;;;;;;;3.35;3.00;;;26.60;56.70;;;;;;5067231;28;20083;-61
2022/07/27 03:56:36;;;;;;;2.63;2.42;;;26.60;56.60;;;;;;5069891;28;20048;-61
2022/07/27 03:59:04;;;;;;;2.60;2.40;;;26.60;56.60;;;;;;5087379;28;20036;-61
2022/07/27 04:01:31;;;;;;;3.88;2.60;;;26.60;56.60;;;;;;5070026;28;20106;-61
2022/07/27 04:03:58;;;;;;;2.88;2.67;;;26.60;56.50;;;;;;5087090;28;20044;-61
2022/07/27 04:06:25;;;;;;;2.85;2.65;;;26.60;56.50;;;;;;5087165;28;20611;-61
2022/07/27 04:08:53;;;;;;;3.08;2.80;;;26.60;56.50;;;;;;5081784;28;20143;-61
2022/07/27 04:11:35;;;;;;;2.85;2.58;;;26.70;56.50;;;;;;5086271;28;20084;-61
2022/07/27 04:14:16;;;;;;;3.40;3.10;;;26.70;56.50;;;;;;5087167;28;20479;-64
2022/07/27 04:16:43;;;;;;;3.72;3.00;;;26.70;56.40;;;;;;5087564;28;20084;-60
2022/07/27 04:19:10;;;;;;;3.40;3.10;;;26.70;56.40;;;;;;5086622;28;20526;-61
2022/07/27 04:21:38;;;;;;;3.22;2.92;;;26.70;56.30;;;;;;5082870;28;20504;-60
2022/07/27 04:24:06;;;;;;;3.50;3.20;;;26.70;56.30;;;;;;5085978;28;20492;-60
2022/07/27 04:26:33;;;;;;;3.30;3.00;;;26.70;56.20;;;;;;5087547;28;20129;-61
2022/07/27 04:29:00;;;;;;;3.47;3.17;;;26.70;56.10;;;;;;5086511;28;20367;-60
2022/07/27 04:31:27;;;;;;;2.92;2.53;;;26.80;56.10;;;;;;5086937;28;20715;-60
2022/07/27 04:33:54;;;;;;;4.93;3.30;;;26.70;56.00;;;;;;5086967;28;20097;-61
2022/07/27 04:36:21;;;;;;;3.75;3.40;;;26.80;56.00;;;;;;5086887;28;20077;-61
2022/07/27 04:38:49;;;;;;;3.42;3.10;;;26.80;56.00;;;;;;5086450;28;20044;-61
2022/07/27 04:41:16;;;;;;;3.35;2.90;;;26.80;55.90;;;;;;5086386;28;20504;-61
2022/07/27 04:43:43;;;;;;;3.97;3.67;;;26.80;55.90;;;;;;5086234;28;20097;-61
2022/07/27 04:46:12;;;;;;;3.40;3.05;;;26.90;55.90;;;;;;5067346;28;20041;-60
2022/07/27 04:48:41;;;;;;;3.58;2.88;;;26.90;55.80;;;;;;5065635;28;20053;-61
2022/07/27 04:51:16;;;;;;;3.60;3.30;;;26.90;55.70;;;;;;5066492;28;20382;-61
2022/07/27 04:53:44;;;;;;;4.05;3.65;;;26.90;55.60;;;;;;5059725;28;20298;-61
2022/07/27 04:56:26;;;;;;;3.40;3.10;;;26.90;55.60;;;;;;5066234;28;20177;-61
2022/07/27 04:58:54;;;;;;;7.32;3.80;;;27.00;55.60;;;;;;5066109;28;20588;-61
2022/07/27 05:01:24;;;;;;;4.00;3.60;;;27.00;55.50;;;;;;5072728;28;20105;-62
2022/07/27 05:03:56;;;;;;;4.38;3.63;;;27.00;55.40;;;;;;5083406;28;20048;-61
2022/07/27 05:06:23;;;;;;;5.00;4.38;;;27.00;55.30;;;;;;5084442;28;20047;-62
2022/07/27 05:08:50;;;;;;;3.80;3.35;;;27.00;55.30;;;;;;5079772;28;20106;-62
2022/07/27 05:11:17;;;;;;;3.60;3.17;;;27.00;55.50;;;;;;5080194;28;20454;-61
2022/07/27 05:13:44;;;;;;;4.28;3.60;;;26.90;55.50;;;;;;5080409;28;20447;-68
2022/07/27 05:16:12;;;;;;;4.53;3.67;;;26.90;55.40;;;;;;5077571;28;20858;-68
2022/07/27 05:18:40;;;;;;;6.68;4.63;;;26.70;55.00;;;;;;5078429;28;20052;-69
2022/07/27 05:21:08;;;;;;;6.50;5.18;;;26.60;54.50;;;;;;5079375;28;20127;-68
2022/07/27 05:23:35;;;;;;;6.82;5.30;;;26.50;54.30;;;;;;5085769;28;20109;-69
2022/07/27 05:26:03;;;;;;;11.48;5.80;;;26.10;54.30;;;;;;5079591;28;20518;-68
2022/07/27 05:28:31;;;;;;;7.38;5.72;;;25.80;54.50;;;;;;5076763;28;20128;-68
2022/07/27 05:30:58;;;;;;;13.18;6.07;;;25.60;54.30;;;;;;5074662;28;20052;-67
2022/07/27 05:33:25;;;;;;;9.52;6.35;;;25.40;54.00;;;;;;5082290;28;20083;-68
2022/07/27 05:35:54;;;;;;;8.60;7.00;;;25.10;53.70;;;;;;5061515;28;20485;-65
2022/07/27 05:38:21;;;;;;;7.20;6.25;;;24.90;53.10;;;;;;5083850;28;20131;-69
2022/07/27 05:40:49;;;;;;;10.80;6.95;;;24.60;52.70;;;;;;5060770;28;20047;-68
2022/07/27 05:43:16;;;;;;;13.98;7.40;;;24.30;52.60;;;;;;5078476;28;20090;-66
2022/07/27 05:45:44;;;;;;;9.30;7.13;;;24.10;53.60;;;;;;5068109;28;20067;-63
2022/07/27 05:48:11;;;;;;;13.30;7.32;;;23.80;54.00;;;;;;5071999;28;20501;-70
2022/07/27 05:50:39;;;;;;;17.10;8.05;;;23.60;52.50;;;;;;5074496;28;20061;-71
2022/07/27 05:53:06;;;;;;;11.73;7.55;;;23.30;54.90;;;;;;5065149;28;20053;-71
2022/07/27 05:55:34;;;;;;;13.27;8.68;;;23.10;55.40;;;;;;5068038;28;21206;-70
2022/07/27 05:58:01;;;;;;;14.98;8.77;;;22.90;53.80;;;;;;5059661;28;20509;-70
2022/07/27 06:00:29;;;;;;;18.33;10.50;;;22.70;54.10;;;;;;5077900;28;20043;-70
2022/07/27 06:02:56;;;;;;;15.32;10.88;;;22.40;54.30;;;;;;5077014;28;20047;-70
2022/07/27 06:05:25;;;;;;;16.20;11.52;;;22.10;55.00;;;;;;5080267;28;20080;-65
2022/07/27 06:07:59;;;;;;;15.63;11.30;;;21.80;55.70;;;;;;5077161;28;20125;-70
2022/07/27 06:10:31;;;;;;;14.52;11.68;;;21.70;58.50;;;;;;5077458;28;20125;-69
2022/07/27 06:13:03;;;;;;;16.67;12.63;;;21.50;57.60;;;;;;5075743;28;20506;-67
2022/07/27 06:15:32;;;;;;;20.15;12.65;;;21.30;60.10;;;;;;5073346;28;20052;-69
2022/07/27 06:17:59;;;;;;;17.73;11.77;;;21.20;60.40;;;;;;5076770;28;20583;-69
2022/07/27 06:20:26;;;;;;;15.82;11.63;;;21.10;59.80;;;;;;5075814;28;20499;-67
2022/07/27 06:22:58;;;;;;;15.18;11.95;;;21.00;59.90;;;;;;5077421;28;20079;-67
2022/07/27 06:25:28;;;;;;;18.33;12.07;;;21.00;61.50;;;;;;5080024;28;20047;-68
2022/07/27 06:28:02;;;;;;;20.48;14.05;;;21.10;62.40;;;;;;5070967;28;20059;-69
2022/07/27 06:30:29;;;;;;;21.13;14.63;;;21.10;64.30;;;;;;5073947;28;20078;-69
2022/07/27 06:32:57;;;;;;;17.30;13.13;;;21.20;64.30;;;;;;5075277;28;20086;-70
2022/07/27 06:35:25;;;;;;;15.45;11.77;;;21.30;64.70;;;;;;5082292;28;20480;-61
2022/07/27 06:37:52;;;;;;;15.13;10.60;;;21.50;62.20;;;;;;5076261;28;20127;-62
2022/07/27 06:40:20;;;;;;;13.52;10.43;;;21.60;61.30;;;;;;5071597;28;20677;-61
2022/07/27 06:42:47;;;;;;;14.30;11.05;;;21.60;60.80;;;;;;5069948;28;20444;-62
2022/07/27 06:45:15;;;;;;;14.73;10.32;;;21.50;60.70;;;;;;5076646;28;20475;-63
2022/07/27 06:47:43;;;;;;;13.40;9.95;;;21.50;60.90;;;;;;5082525;28;20051;-63
2022/07/27 06:50:19;;;;;;;11.45;9.60;;;21.50;60.60;;;;;;5080092;28;20040;-63
2022/07/27 06:52:48;;;;;;;15.60;9.75;;;21.40;60.90;;;;;;5085898;28;20466;-65
2022/07/27 06:55:15;;;;;;;10.75;9.57;;;21.40;59.80;;;;;;5080579;28;20090;-62
2022/07/27 06:57:44;;;;;;;14.52;9.20;;;21.30;59.80;;;;;;5079732;28;20126;-63
2022/07/27 07:00:13;;;;;;;10.60;8.93;;;21.30;59.60;;;;;;5071080;28;20040;-64
2022/07/27 07:02:55;;;;;;;13.07;9.18;;;21.20;60.80;;;;;;5078127;28;20177;-64
2022/07/27 07:05:24;;;;;;;11.40;9.20;;;21.30;60.60;;;;;;5078544;28;20359;-64
2022/07/27 07:07:52;;;;;;;11.02;9.70;;;21.30;60.60;;;;;;5078069;28;20485;-64
2022/07/27 07:10:20;;;;;;;13.73;9.43;;;21.30;60.60;;;;;;5078592;28;20068;-64
2022/07/27 07:12:54;;;;;;;12.07;9.38;;;21.30;60.40;;;;;;5082137;28;20366;-64
2022/07/27 07:15:24;;;;;;;11.45;8.77;;;21.40;60.90;;;;;;5076011;28;20040;-63
2022/07/27 07:17:53;;;;;;;11.27;9.25;;;21.40;60.90;;;;;;5074378;28;20089;-64
2022/07/27 07:20:20;;;;;;;10.63;8.85;;;21.40;60.60;;;;;;5076275;28;20055;-64
2022/07/27 07:22:47;;;;;;;11.38;9.40;;;21.40;60.80;;;;;;5078501;28;20118;-64
2022/07/27 07:25:15;;;;;;;13.35;9.45;;;21.40;60.80;;;;;;5083021;28;20147;-64
2022/07/27 07:27:42;;;;;;;10.85;8.70;;;21.40;60.70;;;;;;5083986;28;20075;-65
2022/07/27 07:30:10;;;;;;;15.40;8.95;;;21.50;60.90;;;;;;5073532;28;20136;-63
2022/07/27 07:32:37;;;;;;;15.18;8.75;;;21.50;60.70;;;;;;5077025;28;20233;-63
2022/07/27 07:35:05;;;;;;;13.73;9.18;;;21.50;60.70;;;;;;5079820;28;20063;-64
2022/07/27 07:37:32;;;;;;;10.25;8.95;;;21.50;60.60;;;;;;5080347;28;20532;-64
2022/07/27 07:40:00;;;;;;;13.38;9.05;;;21.50;60.60;;;;;;5083555;28;20075;-64
2022/07/27 07:43:00;;;;;;;11.68;9.23;;;21.50;60.70;;;;;;5078063;28;20056;-64
2022/07/27 07:45:29;;;;;;;9.45;8.48;;;21.50;61.10;;;;;;5082527;28;20044;-64
2022/07/27 07:47:57;;;;;;;11.50;8.60;;;21.50;61.20;;;;;;5077356;28;20082;-64
2022/07/27 07:50:25;;;;;;;10.73;8.88;;;21.50;61.40;;;;;;5080665;28;20213;-63
2022/07/27 07:52:53;;;;;;;11.27;8.45;;;21.50;61.20;;;;;;5075141;28;20501;-64
2022/07/27 07:55:25;;;;;;;15.13;8.27;;;21.60;61.00;;;;;;5078720;28;20124;-63
2022/07/27 07:57:53;;;;;;;;;;;21.60;61.00;;;;;;5078222;28;20504;-63
2022/07/27 08:00:21;;;;;;;12.27;8.75;;;21.60;61.30;;;;;;5077934;28;19971;-63
2022/07/27 08:02:53;;;;;;;9.85;7.95;;;21.60;61.50;;;;;;5073279;28;20476;-66
2022/07/27 08:05:21;;;;;;;9.18;7.72;;;21.60;61.50;;;;;;5080346;28;20113;-64
2022/07/27 08:07:49;;;;;;;13.65;8.77;;;21.60;61.60;;;;;;5079243;28;20079;-64
2022/07/27 08:10:19;;;;;;;14.73;9.23;;;21.60;61.60;;;;;;5074608;28;20040;-61
2022/07/27 08:12:49;;;;;;;9.05;7.72;;;21.70;61.40;;;;;;5073004;28;20052;-63
2022/07/27 08:15:17;;;;;;;9.93;8.23;;;21.70;62.10;;;;;;5074790;28;20431;-62
2022/07/27 08:17:44;;;;;;;12.70;9.32;;;21.70;62.10;;;;;;5073189;28;20151;-62
2022/07/27 08:20:13;;;;;;;12.93;8.68;;;21.70;62.10;;;;;;5074719;28;20073;-63
2022/07/27 08:22:41;;;;;;;9.10;8.02;;;21.70;62.80;;;;;;5079104;28;20558;-62
2022/07/27 08:25:11;;;;;;;10.93;9.27;;;21.80;62.10;;;;;;5078161;28;20039;-63
2022/07/27 08:27:39;;;;;;;12.30;9.55;;;21.80;62.30;;;;;;5081814;28;20044;-64
2022/07/27 08:30:09;;;;;;;12.25;8.98;;;21.80;61.90;;;;;;5076424;28;20488;-63
2022/07/27 08:32:53;;;;;;;13.50;8.48;;;21.80;61.50;;;;;;5079920;28;20040;-63
2022/07/27 08:35:21;;;;;;;8.93;8.02;;;21.80;61.30;;;;;;5069419;28;20496;-62
2022/07/27 08:37:48;;;;;;;10.20;7.75;;;21.80;61.20;;;;;;5077399;28;20176;-62
2022/07/27 08:40:16;;;;;;;11.27;7.68;;;21.80;60.70;;;;;;5076560;28;20098;-62
2022/07/27 08:43:05;;;;;;;13.35;9.07;;;21.90;60.60;;;;;;5079428;28;20032;-62
2022/07/27 08:45:33;;;;;;;8.82;7.88;;;21.90;60.50;;;;;;5074653;28;20343;-62
2022/07/27 08:48:01;;;;;;;11.40;7.55;;;21.90;60.30;;;;;;5078529;28;20397;-63
2022/07/27 08:50:29;;;;;;;11.52;8.57;;;21.90;60.10;;;;;;5077016;28;20060;-64
2022/07/27 08:53:03;;;;;;;10.00;8.35;;;21.80;60.10;;;;;;5075325;28;20052;-64
2022/07/27 08:55:41;;;;;;;10.02;8.02;;;21.80;60.50;;;;;;5073874;28;20052;-65
2022/07/27 08:58:10;;;;;;;8.50;7.38;;;21.90;60.20;;;;;;5072227;28;20048;-61
2022/07/27 09:00:41;;;;;;;9.00;7.82;;;21.90;60.40;;;;;;5078696;28;20043;-64
2022/07/27 09:03:13;;;;;;;16.05;8.73;;;21.90;60.10;;;;;;5077015;28;20118;-64
2022/07/27 09:05:52;;;;;;;13.88;7.60;;;21.90;60.20;;;;;;5069777;28;20108;-63
2022/07/27 09:08:26;;;;;;;10.02;7.65;;;22.00;60.00;;;;;;5075243;28;20051;-63
2022/07/27 09:10:58;;;;;;;8.98;7.40;;;22.00;59.90;;;;;;5071977;28;20052;-63
2022/07/27 09:13:29;;;;;;;8.10;7.28;;;22.00;59.80;;;;;;5071058;28;20084;-63
2022/07/27 09:15:59;;;;;;;8.65;7.30;;;22.00;59.40;;;;;;5080955;28;20040;-63
2022/07/27 09:18:46;;;;;;;10.25;7.38;;;22.00;59.40;;;;;;5070292;28;20047;-64
2022/07/27 09:21:22;;;;;;;9.95;7.72;;;22.00;59.30;;;;;;5077669;28;20701;-63
2022/07/27 09:24:04;;;;;;;8.20;6.47;;;22.00;59.20;;;;;;5062377;28;20373;-63
2022/07/27 09:27:01;;;;;;;7.20;6.50;;;22.00;59.10;;;;;;5079787;28;20131;-63
2022/07/27 09:29:34;;;;;;;11.00;7.53;;;21.90;58.80;;;;;;5081451;28;20040;-64
2022/07/27 09:32:15;;;;;;;8.68;7.45;;;21.90;58.90;;;;;;5073165;28;20516;-62
2022/07/27 09:34:44;;;;;;;8.82;6.57;;;21.90;58.90;;;;;;5071915;28;20048;-62
2022/07/27 09:37:26;;;;;;;10.80;6.97;;;21.90;58.90;;;;;;5069456;28;20079;-62
2022/07/27 09:40:10;;;;;;;9.40;7.22;;;21.90;58.90;;;;;;5071984;28;20101;-64
2022/07/27 09:42:39;;;;;;;7.22;6.00;;;21.90;58.80;;;;;;5076610;28;20066;-64
2022/07/27 09:45:32;;;;;;;7.05;6.35;;;21.80;58.80;;;;;;5076353;28;20044;-64
2022/07/27 09:48:17;;;;;;;9.07;6.78;;;21.90;59.10;;;;;;5078121;28;20043;-65
2022/07/27 09:50:58;;;;;;;8.43;6.30;;;21.90;61.60;;;;;;5078207;28;22188;-62
2022/07/27 09:53:34;;;;;;;8.00;6.82;;;22.10;62.60;;;;;;5072564;28;20075;-64
2022/07/27 09:56:14;;;;;;;7.35;6.38;;;22.30;61.60;;;;;;5076475;28;20508;-64
2022/07/27 09:58:52;;;;;;;8.10;6.53;;;22.60;60.80;;;;;;5075399;28;20063;-65
2022/07/27 10:01:25;;;;;;;8.30;6.57;;;22.80;60.10;;;;;;5077399;28;20093;-65
2022/07/27 10:03:56;;;;;;;7.05;6.25;;;22.90;59.40;;;;;;5076481;28;20036;-64
2022/07/27 10:06:25;;;;;;;7.57;6.38;;;23.00;58.70;;;;;;5074495;28;20291;-65
2022/07/27 10:08:54;;;;;;;6.07;5.38;;;23.10;58.30;;;;;;5074270;28;20566;-65
2022/07/27 10:11:23;;;;;;;7.57;6.00;;;23.20;57.80;;;;;;5079127;28;20515;-64
2022/07/27 10:13:51;;;;;;;7.95;5.50;;;23.20;57.60;;;;;;5080538;28;20048;-64
2022/07/27 10:16:22;;;;;;;7.57;5.25;;;23.30;57.30;;;;;;5083897;28;20040;-64
2022/07/27 10:19:14;;;;;;;7.22;5.60;;;23.30;57.00;;;;;;5079847;28;20500;-64
2022/07/27 10:21:44;;;;;;;5.55;4.93;;;23.40;56.60;;;;;;5077259;28;20087;-64
2022/07/27 10:24:33;;;;;;;5.90;5.22;;;23.40;56.50;;;;;;5062890;28;20166;-62
2022/07/27 10:27:25;;;;;;;6.60;5.88;;;23.40;56.20;;;;;;5078019;28;20067;-63
2022/07/27 10:29:53;;;;;;;10.63;6.30;;;23.40;56.30;;;;;;5079561;28;20105;-63
2022/07/27 10:32:26;;;;;;;5.43;4.70;;;23.40;56.20;;;;;;5084171;28;20044;-63
2022/07/27 10:34:53;;;;;;;5.00;4.50;;;23.40;56.30;;;;;;5077667;28;20556;-65
2022/07/27 10:37:28;;;;;;;5.07;4.60;;;23.40;56.10;;;;;;5082484;28;20045;-62
2022/07/27 10:42:46;;;;;;;5.35;4.85;;;23.50;55.60;;;;;;5075947;28;20070;-62
2022/07/27 10:45:21;;;;;;;5.32;4.85;;;23.50;55.40;;;;;;5074363;28;20052;-62
2022/07/27 10:47:51;;;;;;;5.53;4.97;;;23.40;55.10;;;;;;5078763;28;20459;-62
2022/07/27 10:50:21;;;;;;;6.18;4.85;;;23.40;55.00;;;;;;5080973;28;20143;-62
2022/07/27 10:52:52;;;;;;;5.90;4.45;;;23.40;54.80;;;;;;5075985;28;20043;-62
2022/07/27 10:55:41;;;;;;;5.53;4.75;;;23.40;54.70;;;;;;5079042;28;20559;-62
2022/07/27 10:58:47;;;;;;;7.40;4.90;;;23.30;54.90;;;;;;5078830;28;20047;-62
2022/07/27 11:01:15;;;;;;;6.40;5.22;;;23.30;54.80;;;;;;5057717;28;20071;-62
2022/07/27 11:03:48;;;;;;;6.03;4.57;;;23.30;54.60;;;;;;5074994;28;20072;-62
2022/07/27 11:06:25;;;;;;;7.25;4.50;;;23.30;54.60;;;;;;5072415;28;20044;-63
2022/07/27 11:09:01;;;;;;;6.10;4.10;;;23.30;54.70;;;;;;5076160;28;20440;-63
2022/07/27 11:11:49;;;;;;;5.07;4.53;;;23.30;54.70;;;;;;5067460;28;20049;-62
2022/07/27 11:14:16;;;;;;;4.63;3.83;;;23.30;54.80;;;;;;5077062;28;20460;-63
2022/07/27 11:16:58;;;;;;;5.37;4.37;;;23.30;54.90;;;;;;5076252;28;20086;-62
2022/07/27 11:19:52;;;;;;;6.90;4.82;;;23.30;54.80;;;;;;5074350;28;20339;-63
2022/07/27 11:22:38;;;;;;;4.50;4.10;;;23.30;54.90;;;;;;5076997;28;20497;-63
2022/07/27 11:25:25;;;;;;;4.72;4.22;;;23.30;54.80;;;;;;5080133;28;20048;-63
2022/07/27 11:27:53;;;;;;;6.32;4.63;;;23.30;54.90;;;;;;5080598;28;20071;-64
2022/07/27 11:30:27;;;;;;;5.53;4.55;;;23.30;54.80;;;;;;5078385;28;20144;-64
2022/07/27 11:32:55;;;;;;;4.65;4.25;;;23.30;54.90;;;;;;5078367;28;20047;-64
2022/07/27 11:35:23;;;;;;;3.92;3.47;;;23.30;54.70;;;;;;5081098;28;20409;-64
2022/07/27 11:38:03;;;;;;;4.18;3.78;;;23.30;54.70;;;;;;5083698;28;20075;-62
2022/07/27 11:40:45;;;;;;;5.60;4.00;;;23.30;54.90;;;;;;5077282;28;20075;-63
2022/07/27 11:43:38;;;;;;;4.00;3.63;;;23.30;54.60;;;;;;5073377;28;20208;-63
2022/07/27 11:46:23;;;;;;;5.78;3.92;;;23.30;54.80;;;;;;5078966;28;20416;-64
2022/07/27 11:48:59;;;;;;;4.78;4.30;;;23.30;54.60;;;;;;5081219;28;20037;-63
2022/07/27 11:51:48;;;;;;;4.30;3.90;;;23.40;54.60;;;;;;5077517;28;20048;-62
2022/07/27 11:54:22;;;;;;;5.28;3.53;;;23.40;54.70;;;;;;5080922;28;20071;-62
2022/07/27 11:56:56;;;;;;;4.28;3.42;;;23.40;54.80;;;;;;5079267;28;20052;-62
2022/07/27 11:59:27;;;;;;;4.00;3.60;;;23.40;54.60;;;;;;5081166;28;20382;-62
2022/07/27 12:01:58;;;;;;;4.22;3.75;;;23.50;54.30;;;;;;5079599;28;20400;-62
2022/07/27 12:04:28;;;;;;;4.95;3.20;;;23.50;54.10;;;;;;5080009;28;20055;-63
2022/07/27 12:07:06;;;;;;;6.22;3.53;;;23.50;54.00;;;;;;5077967;28;20043;-63
2022/07/27 12:09:39;;;;;;;4.47;4.07;;;23.50;53.90;;;;;;5079307;28;20044;-63
2022/07/27 12:12:22;;;;;;;4.40;3.50;;;23.50;53.80;;;;;;5079429;28;20257;-63
2022/07/27 12:14:57;;;;;;;3.90;3.60;;;23.50;53.70;;;;;;5072289;28;20390;-63
2022/07/27 12:17:30;;;;;;;3.55;3.35;;;23.50;53.60;;;;;;5068207;28;20170;-63
2022/07/27 12:20:08;;;;;;;4.63;3.80;;;23.50;53.50;;;;;;5080683;28;20051;-64
2022/07/27 12:22:50;;;;;;;3.97;3.65;;;23.40;53.30;;;;;;5081958;28;20566;-62
2022/07/27 12:25:28;;;;;;;3.28;2.97;;;23.40;53.40;;;;;;5080083;28;20101;-62
2022/07/27 12:28:05;;;;;;;4.40;3.78;;;23.40;53.60;;;;;;5070165;28;20151;-63
2022/07/27 12:30:48;;;;;;;3.75;2.97;;;23.40;53.80;;;;;;5077111;28;20280;-63
2022/07/27 12:33:35;;;;;;;3.78;3.42;;;23.40;53.90;;;;;;5076359;28;20066;-61
2022/07/27 12:36:06;;;;;;;5.97;3.90;;;23.40;54.00;;;;;;5077426;28;20160;-60
2022/07/27 12:38:42;;;;;;;;;;;23.40;54.10;;;;;;5079410;28;20040;-64
2022/07/27 12:41:21;;;;;;;3.45;2.90;;;23.40;54.20;;;;;;5074622;28;20395;-62
2022/07/27 12:44:06;;;;;;;4.10;3.33;;;23.40;54.20;;;;;;5075364;28;20052;-63
2022/07/27 12:46:50;;;;;;;3.80;3.00;;;23.40;54.10;;;;;;5073842;28;20075;-64
2022/07/27 12:49:17;;;;;;;5.00;3.63;;;23.40;54.10;;;;;;5076713;28;20060;-62
2022/07/27 12:51:46;;;;;;;3.60;3.20;;;23.40;53.80;;;;;;5076665;28;20041;-64
2022/07/27 12:54:13;;;;;;;4.35;3.50;;;23.40;53.70;;;;;;5078055;28;20052;-61
2022/07/27 12:56:40;;;;;;;3.83;3.40;;;23.40;53.80;;;;;;5080155;28;20059;-62
2022/07/27 12:59:07;;;;;;;3.67;3.20;;;23.40;53.90;;;;;;5079569;28;20052;-61
2022/07/27 13:01:35;;;;;;;3.45;3.15;;;23.40;53.70;;;;;;5081445;28;20040;-61
2022/07/27 13:04:03;;;;;;;3.80;3.50;;;23.40;53.80;;;;;;5079155;28;20489;-62
2022/07/27 13:06:30;;;;;;;4.10;3.58;;;23.40;53.80;;;;;;5078827;28;20052;-62
2022/07/27 13:08:58;;;;;;;3.85;3.50;;;23.40;53.70;;;;;;5073036;28;20040;-62